Time;durP1;ratioP1;P1;durP2;ratioP2;P2;SDS_P1;SDS_P2;PMS_P1;PMS_P2;Temp;Humidity;BMP_temperature;BMP_pressure;BME280_temperature;BME280_humidity;BME280_pressure;Samples;Min_cycle;Max_cycle;Signal;HPM_P1;HPM_P2
2023/03/11 00:02:10;;;;;;;14.18;8.45;;;1.20;99.90;;;;;;5075706;28;20036;-65
2023/03/11 00:04:35;;;;;;;15.23;7.90;;;1.20;99.90;;;;;;5075259;28;20166;-64
2023/03/11 00:07:04;;;;;;;12.70;8.15;;;1.10;99.90;;;;;;5075298;28;20033;-64
2023/03/11 00:09:30;;;;;;;15.80;7.72;;;1.20;99.90;;;;;;5075240;28;20490;-65
2023/03/11 00:11:55;;;;;;;9.82;6.53;;;1.20;99.90;;;;;;5075287;28;20024;-65
2023/03/11 00:14:21;;;;;;;12.52;7.10;;;1.10;99.90;;;;;;5075328;28;20029;-65
2023/03/11 00:16:47;;;;;;;10.98;6.82;;;1.20;99.90;;;;;;5075117;28;20524;-65
2023/03/11 00:19:12;;;;;;;11.98;7.03;;;1.10;99.90;;;;;;5075334;28;20024;-65
2023/03/11 00:21:38;;;;;;;10.73;6.38;;;1.10;99.90;;;;;;5074879;28;20060;-65
2023/03/11 00:24:04;;;;;;;11.60;6.30;;;1.10;99.90;;;;;;5075167;28;20032;-64
2023/03/11 00:26:29;;;;;;;11.25;6.43;;;1.00;99.90;;;;;;5074957;28;20032;-65
2023/03/11 00:28:55;;;;;;;13.20;7.25;;;0.90;99.90;;;;;;5075092;28;20024;-65
2023/03/11 00:31:21;;;;;;;12.18;6.65;;;0.80;99.90;;;;;;5074985;28;20089;-65
2023/03/11 00:33:47;;;;;;;9.60;5.95;;;0.80;99.90;;;;;;5075031;28;20562;-65
2023/03/11 00:36:23;;;;;;;12.50;6.57;;;0.70;99.90;;;;;;5074963;28;20089;-65
2023/03/11 00:38:49;;;;;;;9.23;5.97;;;0.70;99.90;;;;;;5074863;28;20025;-65
2023/03/11 00:41:14;;;;;;;11.35;6.43;;;0.70;99.90;;;;;;5074886;28;20382;-65
2023/03/11 00:43:40;;;;;;;9.15;5.88;;;0.70;99.90;;;;;;5074381;28;20021;-65
2023/03/11 00:46:12;;;;;;;12.90;6.30;;;0.70;99.90;;;;;;5074343;28;20172;-65
2023/03/11 00:48:37;;;;;;;11.93;7.20;;;0.80;99.90;;;;;;5074716;28;20390;-68
2023/03/11 00:51:05;;;;;;;10.32;6.38;;;0.80;99.90;;;;;;5074503;28;20032;-66
2023/03/11 00:53:43;;;;;;;14.30;6.38;;;0.80;99.90;;;;;;5074610;28;20421;-66
2023/03/11 00:56:10;;;;;;;11.32;6.82;;;0.90;99.90;;;;;;5074199;28;20032;-66
2023/03/11 00:58:36;;;;;;;15.98;7.05;;;0.90;99.90;;;;;;5074463;28;20039;-66
2023/03/11 01:01:12;;;;;;;11.52;6.32;;;0.90;99.90;;;;;;5073590;28;20028;-67
2023/03/11 01:03:38;;;;;;;11.27;6.90;;;0.90;99.90;;;;;;5074176;28;20028;-67
2023/03/11 01:06:04;;;;;;;13.15;7.40;;;0.80;99.90;;;;;;5074274;28;20390;-67
2023/03/11 01:08:30;;;;;;;10.68;6.15;;;0.80;99.90;;;;;;5074151;28;20021;-65
2023/03/11 01:11:03;;;;;;;13.75;7.20;;;0.70;99.90;;;;;;5074190;28;20016;-65
2023/03/11 01:13:28;;;;;;;14.00;6.50;;;0.80;99.90;;;;;;5074286;28;20031;-64
2023/03/11 01:15:54;;;;;;;10.57;6.50;;;0.80;99.90;;;;;;5073927;28;20029;-65
2023/03/11 01:18:20;;;;;;;10.45;6.28;;;0.80;99.90;;;;;;5074137;28;20043;-65
2023/03/11 01:20:46;;;;;;;10.98;6.78;;;0.80;99.90;;;;;;5074180;28;20101;-66
2023/03/11 01:23:13;;;;;;;10.75;6.32;;;0.80;99.90;;;;;;5074066;28;20525;-66
2023/03/11 01:25:39;;;;;;;11.68;7.22;;;0.80;99.90;;;;;;5074170;28;20029;-74
2023/03/11 01:28:07;;;;;;;11.38;7.22;;;0.80;99.90;;;;;;5073877;28;20031;-75
2023/03/11 01:30:34;;;;;;;12.98;6.90;;;0.80;99.90;;;;;;5073886;28;20036;-74
2023/03/11 01:33:00;;;;;;;13.98;7.38;;;0.80;99.90;;;;;;5073733;28;20029;-73
2023/03/11 01:35:28;;;;;;;11.48;6.63;;;0.90;99.90;;;;;;5073759;28;20035;-73
2023/03/11 01:37:54;;;;;;;11.73;7.07;;;0.90;99.90;;;;;;5073403;28;20028;-73
2023/03/11 01:40:38;;;;;;;12.45;7.38;;;0.90;99.90;;;;;;5073805;28;20032;-73
2023/03/11 01:43:24;;;;;;;13.45;6.70;;;0.90;99.90;;;;;;5073717;28;20025;-73
2023/03/11 01:48:32;;;;;;;15.10;7.03;;;0.90;99.90;;;;;;5062306;22;20478;-72
2023/03/11 01:50:58;;;;;;;14.25;7.55;;;0.90;99.90;;;;;;5050829;28;20431;-73
2023/03/11 01:53:24;;;;;;;10.02;6.47;;;0.90;99.90;;;;;;5051260;28;20109;-73
2023/03/11 01:55:50;;;;;;;10.40;6.30;;;0.90;99.90;;;;;;5050940;28;20021;-72
2023/03/11 01:58:21;;;;;;;11.25;7.07;;;0.90;99.90;;;;;;5050969;28;20056;-73
2023/03/11 02:00:47;;;;;;;13.95;7.28;;;0.90;99.90;;;;;;5050293;28;20040;-72
2023/03/11 02:03:20;;;;;;;12.48;7.05;;;0.90;99.90;;;;;;5050564;28;20030;-74
2023/03/11 02:05:46;;;;;;;;;;;0.90;99.90;;;;;;5051264;28;20053;-73
2023/03/11 02:08:11;;;;;;;12.23;6.47;;;0.90;99.90;;;;;;5050331;28;19952;-72
2023/03/11 02:10:40;;;;;;;12.80;7.22;;;0.90;99.90;;;;;;5050595;28;20033;-72
2023/03/11 02:13:06;;;;;;;12.05;6.75;;;0.90;99.90;;;;;;5050373;28;20391;-72
2023/03/11 02:15:32;;;;;;;12.90;6.47;;;0.90;99.90;;;;;;5050290;28;20017;-73
2023/03/11 02:18:00;;;;;;;10.30;6.50;;;0.90;99.90;;;;;;5050109;28;20025;-72
2023/03/11 02:20:38;;;;;;;11.13;6.05;;;0.90;99.90;;;;;;5050538;28;20499;-72
2023/03/11 02:23:03;;;;;;;9.95;6.35;;;0.90;99.90;;;;;;5050678;28;20033;-72
2023/03/11 02:25:44;;;;;;;12.77;6.43;;;0.90;99.90;;;;;;5050533;28;20037;-72
2023/03/11 02:28:13;;;;;;;11.55;6.07;;;0.90;99.90;;;;;;5050313;28;20022;-72
2023/03/11 02:30:42;;;;;;;17.77;6.47;;;0.90;99.90;;;;;;5050654;28;20037;-72
2023/03/11 02:33:09;;;;;;;11.05;5.55;;;0.90;99.90;;;;;;5050596;28;20120;-72
2023/03/11 02:35:34;;;;;;;11.30;5.95;;;0.90;99.90;;;;;;5050485;28;20542;-72
2023/03/11 02:38:00;;;;;;;11.13;6.25;;;0.90;99.90;;;;;;5050116;28;20026;-72
2023/03/11 02:40:34;;;;;;;11.90;5.80;;;0.90;99.90;;;;;;5050437;28;20043;-72
2023/03/11 02:43:03;;;;;;;14.48;6.18;;;0.90;99.90;;;;;;5050338;28;20043;-73
2023/03/11 02:45:30;;;;;;;11.77;6.07;;;0.90;99.90;;;;;;5050066;28;20037;-73
2023/03/11 02:47:58;;;;;;;12.77;5.95;;;0.90;99.90;;;;;;5049775;28;20041;-72
2023/03/11 02:50:25;;;;;;;13.98;6.72;;;0.90;99.90;;;;;;5049824;28;20025;-72
2023/03/11 02:52:51;;;;;;;13.55;7.03;;;0.90;99.90;;;;;;5050095;28;20112;-72
2023/03/11 02:55:19;;;;;;;13.80;6.40;;;0.90;99.90;;;;;;5049520;28;20487;-71
2023/03/11 02:57:46;;;;;;;9.27;5.68;;;1.00;99.90;;;;;;5048555;28;20438;-72
2023/03/11 03:00:13;;;;;;;9.30;6.30;;;0.90;99.90;;;;;;5036132;28;20025;-72
2023/03/11 03:02:40;;;;;;;14.45;6.65;;;0.90;99.90;;;;;;5035995;28;20026;-71
2023/03/11 03:05:07;;;;;;;11.15;5.53;;;0.90;99.90;;;;;;5036584;28;20376;-72
2023/03/11 03:07:33;;;;;;;13.23;6.43;;;0.80;99.90;;;;;;5036169;28;20033;-72
2023/03/11 03:09:58;;;;;;;14.57;6.05;;;0.80;99.90;;;;;;5036386;28;20052;-72
2023/03/11 03:12:24;;;;;;;15.88;7.05;;;0.80;99.90;;;;;;5036343;28;20026;-72
2023/03/11 03:14:49;;;;;;;13.93;6.00;;;0.80;99.90;;;;;;5036520;28;20026;-72
2023/03/11 03:17:15;;;;;;;12.00;5.97;;;0.80;99.90;;;;;;5036095;28;20120;-71
2023/03/11 03:19:41;;;;;;;11.95;5.50;;;0.80;99.90;;;;;;5035913;28;20065;-72
2023/03/11 03:22:06;;;;;;;13.75;5.57;;;0.80;99.90;;;;;;5035990;28;20025;-72
2023/03/11 03:24:32;;;;;;;13.10;5.45;;;0.90;99.90;;;;;;5035997;28;20022;-72
2023/03/11 03:26:57;;;;;;;14.45;6.00;;;0.90;99.90;;;;;;5035791;28;20022;-73
2023/03/11 03:29:23;;;;;;;14.00;5.55;;;0.80;99.90;;;;;;5036217;28;20025;-72
2023/03/11 03:31:49;;;;;;;15.05;5.38;;;0.80;99.90;;;;;;5035632;28;20093;-72
2023/03/11 03:34:14;;;;;;;13.20;5.32;;;0.80;99.90;;;;;;5036130;28;20079;-72
2023/03/11 03:36:40;;;;;;;12.52;5.55;;;0.90;99.90;;;;;;5035997;28;20033;-72
2023/03/11 03:39:06;;;;;;;9.73;5.43;;;0.80;99.90;;;;;;5035860;28;20029;-73
2023/03/11 03:41:31;;;;;;;14.50;5.68;;;0.80;99.90;;;;;;5035450;28;20021;-72
2023/03/11 03:43:57;;;;;;;11.10;5.57;;;0.80;99.90;;;;;;5035421;28;20415;-74
2023/03/11 03:46:23;;;;;;;14.07;6.03;;;0.80;99.90;;;;;;5035795;28;20029;-73
2023/03/11 03:48:49;;;;;;;12.73;5.53;;;0.70;99.90;;;;;;5035097;28;20048;-72
2023/03/11 03:51:15;;;;;;;12.45;5.68;;;0.60;99.90;;;;;;5035292;28;20025;-72
2023/03/11 03:53:41;;;;;;;9.13;5.53;;;0.70;99.90;;;;;;5035290;28;20022;-71
2023/03/11 03:56:10;;;;;;;10.77;5.60;;;0.60;99.90;;;;;;5035019;28;20395;-71
2023/03/11 03:58:36;;;;;;;11.52;5.70;;;0.60;99.90;;;;;;5035485;28;20033;-71
2023/03/11 04:01:03;;;;;;;10.40;5.97;;;0.60;99.90;;;;;;5035047;28;20116;-74
2023/03/11 04:03:30;;;;;;;12.10;5.80;;;0.60;99.90;;;;;;5034890;28;20026;-71
2023/03/11 04:06:06;;;;;;;14.55;6.00;;;0.60;99.90;;;;;;5035270;28;20025;-72
2023/03/11 04:08:32;;;;;;;17.73;6.63;;;0.60;99.90;;;;;;5034974;28;20037;-72
2023/03/11 04:10:57;;;;;;;11.70;5.93;;;0.60;99.90;;;;;;5034278;28;20026;-72
2023/03/11 04:13:23;;;;;;;14.23;6.30;;;0.60;99.90;;;;;;5035367;28;20073;-72
2023/03/11 04:15:49;;;;;;;12.18;5.28;;;0.60;99.90;;;;;;5035439;28;20601;-72
2023/03/11 04:18:14;;;;;;;11.27;5.60;;;0.60;99.90;;;;;;5035193;28;20026;-72
2023/03/11 04:20:40;;;;;;;15.02;5.88;;;0.60;99.90;;;;;;5035089;28;20043;-72
2023/03/11 04:23:05;;;;;;;15.30;5.90;;;0.60;99.90;;;;;;5034527;28;20365;-71
2023/03/11 04:25:33;;;;;;;13.82;5.15;;;0.60;99.90;;;;;;5034427;28;20072;-71
2023/03/11 04:27:59;;;;;;;15.23;5.40;;;0.60;99.90;;;;;;5034500;28;20021;-71
2023/03/11 04:30:24;;;;;;;9.48;4.93;;;0.50;99.90;;;;;;5034746;28;20026;-71
2023/03/11 04:32:50;;;;;;;10.38;5.30;;;0.50;99.90;;;;;;5034272;28;20022;-72
2023/03/11 04:35:16;;;;;;;9.95;5.45;;;0.60;99.90;;;;;;5034503;28;20060;-73
2023/03/11 04:37:41;;;;;;;11.27;5.25;;;0.60;99.90;;;;;;5034492;28;20464;-72
2023/03/11 04:40:08;;;;;;;15.48;5.82;;;0.60;99.90;;;;;;5034901;28;20040;-73
2023/03/11 04:42:34;;;;;;;15.40;4.68;;;0.50;99.90;;;;;;5034521;28;20029;-73
2023/03/11 04:44:59;;;;;;;11.15;5.10;;;0.50;99.90;;;;;;5034111;28;20514;-74
2023/03/11 04:47:25;;;;;;;12.80;4.88;;;0.50;99.90;;;;;;5034597;28;20045;-73
2023/03/11 04:49:50;;;;;;;16.75;5.07;;;0.50;99.90;;;;;;5034198;28;20059;-73
2023/03/11 04:52:16;;;;;;;12.73;4.20;;;0.50;99.90;;;;;;5034490;28;20037;-73
2023/03/11 04:54:41;;;;;;;14.20;4.20;;;0.50;99.90;;;;;;5034491;28;20025;-73
2023/03/11 04:57:07;;;;;;;10.73;4.18;;;0.50;99.90;;;;;;5034254;28;20029;-73
2023/03/11 04:59:33;;;;;;;12.30;4.63;;;0.50;99.90;;;;;;5034589;28;20025;-73
2023/03/11 05:01:58;;;;;;;8.57;3.92;;;0.50;99.90;;;;;;5034430;28;20036;-74
2023/03/11 05:04:24;;;;;;;17.73;5.32;;;0.50;99.90;;;;;;5034108;28;20075;-75
2023/03/11 05:06:50;;;;;;;15.98;4.85;;;0.50;99.90;;;;;;5034104;28;20033;-74
2023/03/11 05:09:15;;;;;;;16.15;4.97;;;0.50;99.90;;;;;;5033762;28;20074;-74
2023/03/11 05:11:41;;;;;;;13.50;4.07;;;0.50;99.90;;;;;;5033794;28;20053;-74
2023/03/11 05:14:06;;;;;;;13.25;5.18;;;0.40;99.90;;;;;;5033844;28;20026;-74
2023/03/11 05:16:32;;;;;;;13.35;4.57;;;0.40;99.90;;;;;;5034071;28;20037;-74
2023/03/11 05:18:58;;;;;;;22.38;4.50;;;0.40;99.90;;;;;;5034071;28;20026;-73
2023/03/11 05:21:23;;;;;;;19.50;4.63;;;0.40;99.90;;;;;;5033633;28;20033;-73
2023/03/11 05:23:49;;;;;;;11.45;4.47;;;0.40;99.90;;;;;;5033609;28;20026;-73
2023/03/11 05:26:14;;;;;;;8.63;3.72;;;0.40;99.90;;;;;;5033352;28;20029;-72
2023/03/11 05:28:40;;;;;;;6.88;3.53;;;0.40;99.90;;;;;;5034029;28;20022;-73
2023/03/11 05:31:08;;;;;;;13.98;4.00;;;0.40;99.90;;;;;;5033916;28;20025;-71
2023/03/11 05:33:34;;;;;;;12.95;3.97;;;0.50;99.90;;;;;;5033489;28;20045;-72
2023/03/11 05:36:08;;;;;;;14.35;4.15;;;0.50;99.90;;;;;;5033513;28;20045;-72
2023/03/11 05:38:35;;;;;;;8.02;3.67;;;0.40;99.90;;;;;;5033332;28;20387;-72
2023/03/11 05:41:01;;;;;;;10.73;3.85;;;0.50;99.90;;;;;;5033399;28;20047;-72
2023/03/11 05:43:27;;;;;;;11.07;3.60;;;0.40;99.90;;;;;;5033848;28;20037;-72
2023/03/11 05:45:52;;;;;;;8.40;3.67;;;0.40;99.90;;;;;;5033481;28;20395;-71
2023/03/11 05:48:18;;;;;;;7.75;3.70;;;0.50;99.90;;;;;;5032992;28;20167;-72
2023/03/11 05:50:43;;;;;;;13.40;3.92;;;0.50;99.90;;;;;;5033667;28;20105;-71
2023/03/11 05:53:09;;;;;;;10.45;4.43;;;0.50;99.90;;;;;;5033642;28;20474;-73
2023/03/11 05:55:34;;;;;;;14.35;3.72;;;0.50;99.90;;;;;;5033661;28;20026;-73
2023/03/11 05:58:00;;;;;;;12.35;3.65;;;0.50;99.90;;;;;;5033144;28;20021;-73
2023/03/11 06:00:28;;;;;;;9.40;3.28;;;0.50;99.90;;;;;;5033725;28;20119;-71
2023/03/11 06:02:54;;;;;;;10.52;3.15;;;0.50;99.90;;;;;;5033167;28;20160;-72
2023/03/11 06:05:20;;;;;;;6.15;3.33;;;0.50;99.90;;;;;;5033197;28;20072;-71
2023/03/11 06:07:45;;;;;;;12.18;3.70;;;0.50;99.90;;;;;;5033188;28;20026;-71
2023/03/11 06:10:11;;;;;;;9.75;3.50;;;0.60;99.90;;;;;;5033259;28;20021;-72
2023/03/11 06:12:37;;;;;;;9.50;4.32;;;0.60;99.90;;;;;;5033401;28;20034;-72
2023/03/11 06:15:05;;;;;;;8.02;3.55;;;0.60;99.90;;;;;;5033441;28;20018;-72
2023/03/11 06:17:30;;;;;;;13.15;4.38;;;0.60;99.90;;;;;;5033089;28;20076;-71
2023/03/11 06:19:56;;;;;;;11.23;3.80;;;0.60;99.90;;;;;;5033515;28;20036;-72
2023/03/11 06:22:22;;;;;;;11.05;4.05;;;0.60;99.90;;;;;;5033023;28;20026;-72
2023/03/11 06:24:47;;;;;;;11.38;3.95;;;0.60;99.90;;;;;;5032888;28;20022;-71
2023/03/11 06:27:13;;;;;;;9.95;3.90;;;0.60;99.90;;;;;;5032707;28;20044;-73
2023/03/11 06:29:38;;;;;;;11.75;3.42;;;0.60;99.90;;;;;;5032848;28;20056;-71
2023/03/11 06:32:05;;;;;;;18.70;3.47;;;0.70;99.90;;;;;;5032821;28;20024;-72
2023/03/11 06:34:30;;;;;;;10.15;4.15;;;0.60;99.90;;;;;;5035537;28;20044;-72
2023/03/11 06:36:58;;;;;;;11.75;5.60;;;0.60;99.90;;;;;;5036730;28;20047;-72
2023/03/11 06:39:23;;;;;;;14.57;4.40;;;0.70;99.90;;;;;;5036432;28;20079;-71
2023/03/11 06:41:49;;;;;;;7.88;3.08;;;1.10;99.90;;;;;;5036484;28;20470;-72
2023/03/11 06:44:14;;;;;;;8.07;3.50;;;1.80;99.90;;;;;;5036550;28;20044;-71
2023/03/11 06:46:40;;;;;;;21.65;9.98;;;3.10;99.90;;;;;;5036411;28;20029;-72
2023/03/11 06:49:06;;;;;;;15.70;7.47;;;3.50;99.90;;;;;;5036664;28;20480;-71
2023/03/11 06:51:32;;;;;;;3.70;2.10;;;4.40;99.90;;;;;;5036193;28;20071;-72
2023/03/11 06:53:57;;;;;;;6.90;2.40;;;4.70;99.90;;;;;;5036528;28;20072;-71
2023/03/11 06:56:23;;;;;;;5.43;2.33;;;5.40;99.90;;;;;;5036452;28;20068;-73
2023/03/11 06:58:49;;;;;;;8.85;2.97;;;5.90;99.90;;;;;;5036367;28;20032;-72
2023/03/11 07:01:17;;;;;;;8.20;2.55;;;5.90;99.90;;;;;;5035976;28;20017;-71
2023/03/11 07:03:45;;;;;;;7.80;2.70;;;5.40;99.90;;;;;;5035946;28;20033;-73
2023/03/11 07:06:13;;;;;;;8.93;2.85;;;5.70;99.90;;;;;;5035807;28;20025;-73
2023/03/11 07:08:38;;;;;;;6.82;2.95;;;6.10;99.90;;;;;;5035925;28;20087;-73
2023/03/11 07:11:07;;;;;;;7.53;2.55;;;6.20;99.90;;;;;;5036356;28;20037;-73
2023/03/11 07:13:33;;;;;;;8.27;2.40;;;6.30;99.90;;;;;;5036110;28;20053;-71
2023/03/11 07:16:02;;;;;;;5.40;1.90;;;6.30;99.90;;;;;;5036257;28;20026;-73
2023/03/11 07:18:28;;;;;;;6.20;2.75;;;6.80;99.90;;;;;;5035799;28;20524;-73
2023/03/11 07:20:53;;;;;;;5.50;1.77;;;7.00;99.90;;;;;;5036200;28;20029;-71
2023/03/11 07:23:19;;;;;;;6.10;2.08;;;6.80;99.90;;;;;;5035455;28;20040;-74
2023/03/11 07:25:46;;;;;;;10.60;2.45;;;6.60;99.90;;;;;;5035916;28;20060;-71
2023/03/11 07:28:11;;;;;;;8.07;2.13;;;6.20;99.90;;;;;;5035446;28;20030;-71
2023/03/11 07:30:38;;;;;;;8.13;2.22;;;6.80;99.90;;;;;;5035559;28;20037;-71
2023/03/11 07:33:03;;;;;;;7.45;2.30;;;6.60;99.90;;;;;;5035431;28;20017;-72
2023/03/11 07:35:29;;;;;;;6.53;2.03;;;7.20;99.90;;;;;;5035476;28;20037;-73
2023/03/11 07:37:55;;;;;;;9.13;2.25;;;6.90;99.90;;;;;;5035762;28;20033;-71
2023/03/11 07:40:20;;;;;;;7.50;2.00;;;6.80;99.90;;;;;;5035706;28;20055;-71
2023/03/11 07:42:46;;;;;;;8.75;2.30;;;7.20;99.90;;;;;;5035716;28;20391;-71
2023/03/11 07:45:11;;;;;;;5.15;2.28;;;7.20;99.90;;;;;;5035059;28;20395;-71
2023/03/11 07:47:37;;;;;;;7.25;2.63;;;7.00;99.90;;;;;;5034874;28;20041;-71
2023/03/11 07:50:02;;;;;;;6.88;2.47;;;6.90;99.90;;;;;;5035631;28;20072;-72
2023/03/11 07:52:31;;;;;;;10.15;2.47;;;6.70;99.90;;;;;;5035461;28;20029;-71
2023/03/11 07:54:57;;;;;;;6.43;2.33;;;7.00;99.90;;;;;;5035598;28;20244;-72
2023/03/11 07:57:22;;;;;;;7.55;1.83;;;7.40;99.90;;;;;;5034999;28;20132;-72
2023/03/11 07:59:48;;;;;;;4.95;1.85;;;8.40;99.90;;;;;;5035235;28;20041;-73
2023/03/11 08:02:13;;;;;;;6.65;2.25;;;8.30;99.90;;;;;;5035196;28;20060;-72
2023/03/11 08:04:40;;;;;;;4.97;1.92;;;8.90;99.90;;;;;;5035213;28;20166;-72
2023/03/11 08:07:05;;;;;;;5.82;1.90;;;8.90;99.90;;;;;;5034760;28;20025;-72
2023/03/11 08:09:32;;;;;;;6.70;2.33;;;8.60;99.90;;;;;;5034837;28;20060;-74
2023/03/11 08:11:58;;;;;;;6.22;1.85;;;8.40;99.90;;;;;;5035216;28;20075;-72
2023/03/11 08:14:24;;;;;;;10.90;2.25;;;8.20;99.90;;;;;;5035077;28;20025;-72
2023/03/11 08:16:49;;;;;;;5.05;1.70;;;8.10;99.90;;;;;;5035197;28;20029;-72
2023/03/11 08:19:15;;;;;;;7.68;1.70;;;8.70;99.90;;;;;;5034612;28;20021;-72
2023/03/11 08:21:40;;;;;;;4.80;1.67;;;8.90;99.90;;;;;;5034965;28;20060;-72
2023/03/11 08:24:06;;;;;;;6.63;1.73;;;9.20;99.90;;;;;;5034798;28;20026;-72
2023/03/11 08:26:32;;;;;;;4.32;1.55;;;8.20;99.90;;;;;;5034885;28;20472;-72
2023/03/11 08:28:58;;;;;;;7.68;1.80;;;8.30;99.90;;;;;;5034365;28;20018;-72
2023/03/11 08:31:26;;;;;;;2.78;1.50;;;8.70;99.90;;;;;;5034855;28;20048;-73
2023/03/11 08:33:55;;;;;;;5.45;1.60;;;8.40;99.90;;;;;;5034541;28;20026;-72
2023/03/11 08:36:21;;;;;;;7.30;1.73;;;8.70;99.90;;;;;;5034292;28;20096;-72
2023/03/11 08:38:47;;;;;;;5.38;1.60;;;8.70;99.90;;;;;;5034643;28;20037;-72
2023/03/11 08:41:13;;;;;;;7.72;1.58;;;8.90;99.90;;;;;;5034460;28;20064;-72
2023/03/11 08:43:39;;;;;;;2.97;1.40;;;8.70;99.90;;;;;;5034760;28;20033;-72
2023/03/11 08:46:06;;;;;;;6.40;1.33;;;8.50;99.90;;;;;;5034487;28;20022;-72
2023/03/11 08:48:31;;;;;;;6.53;1.90;;;8.50;99.90;;;;;;5034102;28;20041;-72
2023/03/11 08:50:57;;;;;;;5.60;1.88;;;8.30;99.90;;;;;;5034370;28;20029;-72
2023/03/11 08:53:23;;;;;;;5.00;1.95;;;8.60;99.90;;;;;;5034233;28;20059;-72
2023/03/11 08:55:50;;;;;;;5.30;1.80;;;9.40;99.90;;;;;;5033573;28;20025;-72
2023/03/11 08:58:16;;;;;;;7.85;1.83;;;9.60;99.90;;;;;;5033697;28;20033;-72
2023/03/11 09:00:42;;;;;;;7.45;1.85;;;9.00;99.90;;;;;;5033738;28;20032;-72
2023/03/11 09:03:07;;;;;;;4.82;1.98;;;9.80;99.90;;;;;;5034188;28;20101;-72
2023/03/11 09:05:33;;;;;;;4.15;1.55;;;10.20;99.90;;;;;;5033635;28;20021;-73
2023/03/11 09:07:58;;;;;;;7.93;1.85;;;9.50;99.90;;;;;;5033889;28;20022;-72
2023/03/11 09:10:24;;;;;;;6.03;1.42;;;9.90;99.90;;;;;;5033860;28;20028;-72
2023/03/11 09:12:50;;;;;;;5.47;1.92;;;9.70;99.90;;;;;;5033620;28;20055;-72
2023/03/11 09:15:15;;;;;;;5.15;1.40;;;9.30;99.90;;;;;;5034164;28;20039;-72
2023/03/11 09:17:41;;;;;;;4.47;1.85;;;9.00;99.90;;;;;;5033474;28;20466;-73
2023/03/11 09:20:07;;;;;;;7.40;1.90;;;9.20;99.90;;;;;;5033887;28;20033;-72
2023/03/11 09:22:33;;;;;;;3.30;1.50;;;8.60;99.90;;;;;;5033590;28;20128;-72
2023/03/11 09:24:58;;;;;;;2.85;1.45;;;8.20;99.90;;;;;;5033771;28;20060;-72
2023/03/11 09:27:24;;;;;;;3.40;1.58;;;9.10;99.90;;;;;;5033345;28;20025;-72
2023/03/11 09:29:49;;;;;;;6.60;1.83;;;9.60;99.90;;;;;;5033777;28;20036;-72
2023/03/11 09:32:15;;;;;;;5.75;2.05;;;9.80;99.90;;;;;;5033583;28;20384;-72
2023/03/11 09:34:41;;;;;;;4.38;1.65;;;9.90;99.90;;;;;;5033944;28;20025;-72
2023/03/11 09:37:07;;;;;;;4.97;1.77;;;8.70;99.90;;;;;;5033435;28;20494;-72
2023/03/11 09:39:32;;;;;;;6.45;2.22;;;8.70;99.90;;;;;;5033434;28;20043;-72
2023/03/11 09:42:05;;;;;;;8.10;1.90;;;8.70;99.90;;;;;;5033800;28;20040;-72
2023/03/11 09:44:38;;;;;;;3.20;1.73;;;8.90;99.90;;;;;;5033647;28;20116;-72
2023/03/11 09:47:24;;;;;;;;;;;9.30;99.90;;;;;;5033495;28;20099;-73
2023/03/11 09:50:14;;;;;;;6.13;1.42;;;8.30;99.90;;;;;;5032964;28;19905;-72
2023/03/11 09:53:00;;;;;;;2.83;1.13;;;8.90;99.90;;;;;;5033011;28;20112;-72
2023/03/11 09:55:44;;;;;;;6.00;1.42;;;9.60;99.90;;;;;;5033381;28;20030;-72
2023/03/11 09:58:46;;;;;;;6.68;1.48;;;9.70;99.90;;;;;;5033056;28;20026;-72
2023/03/11 10:01:33;;;;;;;6.32;1.75;;;9.60;99.90;;;;;;5033258;28;20022;-72
2023/03/11 10:04:22;;;;;;;7.22;1.40;;;10.00;99.90;;;;;;5032809;28;20030;-72
2023/03/11 10:06:48;;;;;;;8.15;1.55;;;10.10;99.90;;;;;;5032540;28;20033;-72
2023/03/11 10:12:48;;;;;;;5.30;1.30;;;10.30;99.90;;;;;;5111171;27;20450;-72
2023/03/11 10:15:38;;;;;;;4.40;1.25;;;10.00;98.70;;;;;;5110915;28;20122;-72
2023/03/11 10:21:05;;;;;;;6.38;1.65;;;9.80;99.90;;;;;;5111374;27;20302;-72
2023/03/11 10:23:49;;;;;;;3.35;1.20;;;10.60;99.90;;;;;;5111382;28;20046;-71
2023/03/11 10:26:22;;;;;;;5.43;0.75;;;10.70;99.90;;;;;;5111287;28;20016;-71
2023/03/11 10:28:54;;;;;;;5.57;1.13;;;10.80;97.30;;;;;;5111092;28;20020;-71
2023/03/11 10:31:32;;;;;;;3.50;0.88;;;10.90;97.00;;;;;;5111095;28;20088;-71
2023/03/11 10:34:37;;;;;;;4.35;1.30;;;10.40;96.30;;;;;;5110992;28;20028;-71
2023/03/11 10:37:10;;;;;;;5.07;1.20;;;9.30;98.60;;;;;;5111017;28;20066;-71
2023/03/11 10:39:38;;;;;;;5.15;1.27;;;8.60;99.90;;;;;;5110491;28;20028;-71
2023/03/11 10:42:09;;;;;;;3.05;1.35;;;8.60;99.90;;;;;;5111001;28;20050;-72
2023/03/11 10:44:37;;;;;;;3.97;1.35;;;9.30;99.90;;;;;;5110585;28;20473;-71
2023/03/11 10:47:03;;;;;;;3.85;1.20;;;9.70;99.90;;;;;;5110520;28;20032;-72
2023/03/11 10:49:29;;;;;;;4.88;1.48;;;10.20;99.90;;;;;;5110405;28;20027;-72
2023/03/11 10:51:56;;;;;;;6.65;1.40;;;10.00;99.90;;;;;;5110706;28;20031;-72
2023/03/11 10:54:36;;;;;;;7.90;1.33;;;10.20;99.90;;;;;;5110304;28;20028;-72
2023/03/11 10:57:05;;;;;;;6.93;1.55;;;9.60;99.90;;;;;;5110852;28;20038;-71
2023/03/11 10:59:34;;;;;;;6.95;1.48;;;9.40;99.90;;;;;;5110552;28;20030;-71
2023/03/11 11:02:17;;;;;;;4.28;1.27;;;10.10;99.90;;;;;;5110611;28;20088;-72
2023/03/11 11:04:43;;;;;;;;;;;10.30;99.90;;;;;;5110816;28;20031;-72
2023/03/11 11:07:30;;;;;;;5.88;1.50;;;9.50;99.90;;;;;;5110092;28;19904;-71
2023/03/11 11:15:32;;;;;;;2.75;1.23;;;8.80;99.90;;;;;;5152502;27;20378;-71
2023/03/11 11:18:01;;;;;;;5.95;1.30;;;9.30;99.90;;;;;;5152020;27;20484;-73
2023/03/11 11:20:28;;;;;;;3.47;1.40;;;9.10;99.90;;;;;;5152436;27;20110;-71
2023/03/11 11:22:56;;;;;;;5.38;1.23;;;9.30;99.10;;;;;;5152485;27;20023;-71
2023/03/11 11:25:33;;;;;;;4.28;0.90;;;9.40;98.20;;;;;;5152242;27;20455;-72
2023/03/11 11:28:03;;;;;;;3.85;1.20;;;9.60;97.20;;;;;;5151973;27;20034;-72
2023/03/11 11:30:29;;;;;;;8.93;1.33;;;9.20;98.50;;;;;;5152420;27;20038;-71
2023/03/11 11:32:55;;;;;;;3.88;1.23;;;8.80;99.00;;;;;;5152238;27;20393;-72
2023/03/11 11:35:23;;;;;;;5.07;1.42;;;9.10;99.90;;;;;;5151693;27;20059;-72
2023/03/11 11:37:52;;;;;;;4.03;1.00;;;9.60;99.90;;;;;;5151862;27;20067;-71
2023/03/11 11:40:25;;;;;;;2.80;1.25;;;9.30;99.90;;;;;;5151653;27;20019;-72
2023/03/11 11:42:56;;;;;;;;;;;8.80;99.90;;;;;;5152125;27;20389;-72
2023/03/11 11:45:43;;;;;;;4.55;1.08;;;8.80;99.90;;;;;;5151667;27;19953;-71
2023/03/11 11:48:22;;;;;;;7.50;1.55;;;9.00;99.90;;;;;;5151994;27;20030;-72
2023/03/11 11:50:52;;;;;;;4.72;1.05;;;8.80;99.90;;;;;;5151991;27;20109;-72
2023/03/11 11:53:36;;;;;;;5.75;1.60;;;8.50;98.70;;;;;;5151762;27;20407;-72
2023/03/11 11:56:02;;;;;;;8.45;1.95;;;8.30;99.90;;;;;;5151870;27;20469;-72
2023/03/11 11:58:30;;;;;;;6.40;1.45;;;7.80;99.90;;;;;;5151726;27;20046;-71
2023/03/11 12:01:03;;;;;;;5.00;1.38;;;;;;;;;;5151302;27;20076;-72
2023/03/11 12:03:58;;;;;;;3.92;1.10;;;7.20;99.90;;;;;;5151569;27;20034;-71
2023/03/11 12:09:29;;;;;;;7.88;1.85;;;6.90;99.90;;;;;;5061913;22;20397;-71
2023/03/11 12:15:25;;;;;;;3.88;1.20;;;7.10;99.90;;;;;;5118992;22;20473;-73
2023/03/11 12:17:58;;;;;;;3.72;1.00;;;6.80;99.90;;;;;;5110976;28;20038;-72
2023/03/11 12:20:32;;;;;;;4.78;1.00;;;7.10;99.90;;;;;;5111154;28;20028;-72
2023/03/11 12:23:23;;;;;;;6.55;1.05;;;7.20;99.90;;;;;;5111118;28;20028;-72
2023/03/11 12:26:04;;;;;;;6.22;1.42;;;7.40;99.90;;;;;;5110826;28;20032;-72
2023/03/11 12:28:40;;;;;;;5.78;1.17;;;7.50;99.70;;;;;;5111175;28;20496;-73
2023/03/11 12:31:09;;;;;;;8.40;1.60;;;7.50;99.90;;;;;;5117771;28;20435;-72
2023/03/11 12:33:42;;;;;;;6.15;1.52;;;7.80;99.90;;;;;;5110745;28;20031;-74
2023/03/11 12:36:23;;;;;;;4.97;1.70;;;7.70;99.90;;;;;;5110896;28;20048;-71
2023/03/11 12:38:49;;;;;;;3.13;1.40;;;7.30;99.90;;;;;;5110904;28;20036;-73
2023/03/11 12:44:00;;;;;;;6.95;1.50;;;7.20;99.90;;;;;;5118594;22;20466;-66
2023/03/11 12:46:55;;;;;;;8.48;2.15;;;7.50;99.90;;;;;;5111224;28;20024;-65
2023/03/11 12:49:29;;;;;;;4.35;1.20;;;7.70;99.90;;;;;;5110889;28;20016;-65
2023/03/11 12:52:25;;;;;;;3.38;1.45;;;7.70;99.90;;;;;;5111048;28;20059;-65
2023/03/11 12:57:47;;;;;;;6.53;1.20;;;7.90;99.90;;;;;;5111112;27;20407;-67
2023/03/11 13:00:52;;;;;;;3.20;1.20;;;8.10;99.90;;;;;;5111300;28;20489;-66
2023/03/11 13:03:33;;;;;;;6.78;1.50;;;8.20;99.90;;;;;;5110834;28;20059;-67
2023/03/11 13:09:03;;;;;;;4.60;1.23;;;8.30;99.90;;;;;;5111131;27;20381;-65
2023/03/11 13:11:40;;;;;;;4.25;1.40;;;8.40;99.90;;;;;;5111098;28;20035;-65
2023/03/11 13:14:28;;;;;;;5.78;1.50;;;7.90;99.90;;;;;;5111200;28;20031;-65
2023/03/11 13:16:55;;;;;;;6.93;1.60;;;7.70;99.90;;;;;;5111174;28;20401;-65
2023/03/11 13:19:46;;;;;;;5.55;1.35;;;7.70;99.90;;;;;;5110983;28;20035;-65
2023/03/11 13:22:41;;;;;;;5.95;1.35;;;7.70;99.90;;;;;;5109617;28;20428;-65
2023/03/11 13:25:31;;;;;;;5.15;1.20;;;7.80;99.90;;;;;;5110869;28;20063;-65
2023/03/11 13:28:22;;;;;;;3.20;1.48;;;7.60;99.90;;;;;;5110662;28;20395;-65
2023/03/11 13:30:58;;;;;;;4.43;1.52;;;7.70;99.90;;;;;;5110532;28;20389;-65
2023/03/11 13:33:32;;;;;;;5.70;1.42;;;7.70;99.90;;;;;;5110893;28;20359;-65